^^
Station Historical Data
Daily Summary for June 13, 2018 Units:  English    Metric   Both
« Previous Day
Next Day »
Daily Weekly Monthly Yearly Custom
  High: Low: Average:
Temperature: 82.2 °F 53.1 °F 68.5 °F
Dew Point: 63.3 °F 45.8 °F 53.8 °F
Humidity: 98% 30% 66%
Wind Speed: 11.5mph 0.0mph 3mph
Wind Gust: 6.5mph - -
Wind- - SW
Pressure: 30.00 in 29.80 in -
Precipitation: 0.43 in    
Historical Graphs
 
 
Tabular Data for June 13, 2018
Time Temperature Dew Point Pressure Wind Wind Speed Wind Gust Humidity Rainfall Rate (Hourly) solar Conditions
00:04 62.1 °F 61.5 °F 29.85 in Calm     98% 0.00 in 0.00 W/m2 FEW
00:09 62.1 °F 61.5 °F 29.85 in Calm     98% 0.00 in 0.00 W/m2 FEW
00:14 62.1 °F 61.5 °F 29.85 in Calm     98% 0.00 in 0.00 W/m2 FEW
00:19 62.1 °F 61.5 °F 29.85 in Calm     98% 0.00 in 0.00 W/m2 BKN
00:24 62.1 °F 61.5 °F 29.84 in Calm     98% 0.00 in 0.00 W/m2 BKN
00:29 62.1 °F 61.5 °F 29.84 in Calm     98% 0.00 in 0.00 W/m2 BKN
00:34 62.1 °F 61.5 °F 29.85 in Calm     98% 0.00 in 0.00 W/m2 BKN
00:39 62.1 °F 61.5 °F 29.85 in Calm     98% 0.00 in 0.00 W/m2 BKN
00:44 62.1 °F 61.5 °F 29.84 in Calm     98% 0.00 in 0.00 W/m2 BKN
00:49 62.1 °F 61.5 °F 29.84 in Calm     98% 0.00 in 0.00 W/m2 OVC
00:54 62.1 °F 61.5 °F 29.83 in Calm     98% 0.00 in 0.00 W/m2 OVC
00:59 62.1 °F 61.5 °F 29.84 in Calm     98% 0.00 in 0.00 W/m2 OVC
01:04 62.1 °F 61.5 °F 29.84 in Calm     98% 0.00 in 0.00 W/m2 OVC
01:09 62.1 °F 61.5 °F 29.84 in Calm     98% 0.00 in 0.00 W/m2 OVC
01:14 62.2 °F 61.7 °F 29.83 in Calm     98% 0.00 in 0.00 W/m2 OVC
01:19 62.2 °F 61.7 °F 29.83 in Calm     98% 0.00 in 0.00 W/m2 OVC
01:24 62.4 °F 61.8 °F 29.83 in Calm     98% 0.00 in 0.00 W/m2 OVC
01:29 62.8 °F 62.2 °F 29.83 in SE 2.3 mph 0.4 mph 98% 0.00 in 0.00 W/m2 OVC
01:34 63.3 °F 62.7 °F 29.83 in West 2.3 mph 0.9 mph 98% 0.00 in 0.00 W/m2 OVC
01:39 63.9 °F 63.3 °F 29.83 in South 3.5 mph 0.9 mph 98% 0.00 in 0.00 W/m2 OVC
01:44 63.9 °F 63.3 °F 29.82 in Calm     98% 0.00 in 0.00 W/m2 OVC
01:49 63.3 °F 62.7 °F 29.82 in Calm     98% 0.00 in 0.00 W/m2 OVC
01:54 63.0 °F 62.4 °F 29.81 in Calm     98% 0.00 in 0.00 W/m2 OVC
01:59 62.8 °F 62.2 °F 29.81 in Calm     98% 0.00 in 0.00 W/m2 OVC
02:04 62.4 °F 61.8 °F 29.81 in Calm     98% 0.00 in 0.00 W/m2 -RA
02:09 62.2 °F 61.7 °F 29.81 in Calm     98% 0.00 in 0.00 W/m2 -RA
02:14 62.1 °F 61.5 °F 29.81 in Calm     98% 0.00 in 0.00 W/m2 -RA
02:19 61.7 °F 61.1 °F 29.81 in Calm     98% 0.00 in 0.00 W/m2 -RA
02:24 61.5 °F 61.0 °F 29.80 in Calm     98% 0.00 in 0.00 W/m2 -RA
02:29 61.5 °F 61.0 °F 29.81 in Calm     98% 0.00 in 0.00 W/m2 -RA
02:34 61.3 °F 60.8 °F 29.83 in Calm     98% 0.00 in 0.00 W/m2 -RA
02:39 61.3 °F 60.8 °F 29.82 in Calm     98% 0.00 in 0.00 W/m2 -RA
02:44 61.3 °F 60.8 °F 29.81 in Calm     98% 0.00 in 0.00 W/m2 -RA
02:49 61.3 °F 60.8 °F 29.83 in West 2.0 mph 0.2 mph 98% 0.00 in 0.00 W/m2 -RA
02:54 61.3 °F 60.8 °F 29.86 in WNW 4.0 mph 1.3 mph 98% 0.00 in 0.00 W/m2 -RA
02:59 61.2 °F 60.6 °F 29.84 in West 2.3 mph 1.8 mph 98% 0.12 in 0.00 W/m2 -RA
03:04 61.2 °F 60.6 °F 29.83 in NNW 3.5 mph 1.8 mph 98% 0.25 in 0.00 W/m2 RA
03:09 60.3 °F 59.7 °F 29.81 in SW 3.5 mph 2.9 mph 98% 0.42 in 0.00 W/m2 RA
03:14 60.3 °F 59.7 °F 29.82 in SSE 2.3 mph 2.2 mph 98% 0.43 in 0.00 W/m2 RA
03:19 60.1 °F 59.5 °F 29.81 in South 1.2 mph 0.4 mph 98% 0.43 in 0.00 W/m2 RA
03:24 60.1 °F 59.5 °F 29.82 in NW 2.0 mph 0.4 mph 98% 0.43 in 0.00 W/m2 OVC
03:29 60.1 °F 59.5 °F 29.82 in Calm   0.2 mph 98% 0.43 in 0.00 W/m2 OVC
03:34 60.1 °F 59.5 °F 29.82 in Calm     98% 0.43 in 0.00 W/m2 -RA
03:39 59.9 °F 59.3 °F 29.81 in Calm     98% 0.43 in 0.00 W/m2 -RA
03:44 59.9 °F 59.3 °F 29.81 in Calm     98% 0.43 in 0.00 W/m2 -RA
03:49 59.4 °F 58.8 °F 29.81 in Calm     98% 0.43 in 0.00 W/m2 -RA
03:54 59.4 °F 58.8 °F 29.81 in Calm     98% 0.43 in 0.00 W/m2 -RA
03:59 59.4 °F 58.8 °F 29.81 in Calm     98% 0.31 in 0.00 W/m2 -RA
04:04 59.2 °F 58.6 °F 29.81 in Calm     98% 0.18 in 0.00 W/m2 -RA
04:09 59.0 °F 58.4 °F 29.81 in Calm     98% 0.01 in 0.00 W/m2 -RA
04:14 58.8 °F 58.3 °F 29.81 in Calm     98% 0.00 in 0.00 W/m2 -RA
04:19 58.8 °F 58.3 °F 29.82 in Calm     98% 0.00 in 0.00 W/m2 -RA
04:24 58.5 °F 57.9 °F 29.82 in Calm     98% 0.00 in 0.00 W/m2 -RA
04:29 58.5 °F 57.9 °F 29.82 in Calm     98% 0.00 in 0.00 W/m2 -RA
04:34 58.3 °F 57.7 °F 29.82 in SW 1.2 mph 0.2 mph 98% 0.00 in 0.00 W/m2 -RA
04:39 58.3 °F 57.7 °F 29.82 in ESE 0.9 mph 0.2 mph 98% 0.00 in 0.00 W/m2 -RA
04:44 58.3 °F 57.7 °F 29.82 in SW 2.3 mph 0.4 mph 98% 0.00 in 0.00 W/m2 -RA
04:49 58.3 °F 57.7 °F 29.82 in WSW 2.3 mph 0.4 mph 98% 0.00 in 0.00 W/m2 -RA
04:54 58.5 °F 57.9 °F 29.82 in SW 0.9 mph 0.4 mph 98% 0.00 in 0.00 W/m2 -RA
04:59 58.5 °F 57.9 °F 29.82 in West 1.2 mph 0.4 mph 98% 0.00 in 123.90 W/m2 -RA
05:04 58.5 °F 57.9 °F 29.82 in Calm   0.4 mph 98% 0.00 in 157.30 W/m2 SCT
05:09 58.5 °F 57.9 °F 29.82 in ESE 3.5 mph 1.6 mph 98% 0.00 in 175.40 W/m2 SCT
05:14 58.8 °F 58.3 °F 29.82 in WSW 4.0 mph 1.6 mph 98% 0.00 in 194.60 W/m2 SCT
05:19 58.8 °F 58.3 °F 29.82 in NNW 6.0 mph 2.2 mph 98% 0.00 in 213.80 W/m2 BKN
05:24 59.0 °F 58.4 °F 29.82 in NNW 3.5 mph 3.6 mph 98% 0.00 in 219.90 W/m2 BKN
05:29 59.0 °F 58.4 °F 29.82 in NE 1.2 mph 0.2 mph 98% 0.00 in 231.00 W/m2 BKN
05:34 59.0 °F 58.4 °F 29.83 in SW 1.2 mph 0.4 mph 98% 0.00 in 237.00 W/m2 BKN
05:39 59.0 °F 58.4 °F 29.83 in SW 2.3 mph 1.3 mph 98% 0.00 in 241.10 W/m2 BKN
05:44 58.8 °F 58.3 °F 29.83 in Calm     98% 0.00 in 245.10 W/m2 BKN
05:49 58.5 °F 57.9 °F 29.83 in SSE 2.3 mph 0.7 mph 98% 0.00 in 248.20 W/m2 BKN
05:54 58.5 °F 57.9 °F 29.84 in West 2.3 mph 1.1 mph 98% 0.00 in 252.20 W/m2 BKN
05:59 58.5 °F 57.9 °F 29.84 in West 4.6 mph 3.1 mph 98% 0.00 in 256.20 W/m2 BKN
06:04 58.5 °F 57.9 °F 29.84 in West 2.3 mph 3.1 mph 98% 0.00 in 259.30 W/m2 BKN
06:09 58.5 °F 57.9 °F 29.85 in SW 4.6 mph 4.0 mph 98% 0.00 in 263.30 W/m2 BKN
06:14 58.5 °F 57.9 °F 29.85 in NW 8.0 mph 4.7 mph 98% 0.00 in 266.30 W/m2 BKN
06:19 58.5 °F 57.9 °F 29.85 in West 8.0 mph 5.1 mph 98% 0.00 in 268.30 W/m2 BKN
06:24 58.5 °F 57.9 °F 29.86 in West 4.0 mph 3.8 mph 98% 0.00 in 268.30 W/m2 BKN
06:29 58.5 °F 57.9 °F 29.86 in West 3.5 mph 2.5 mph 98% 0.00 in 269.40 W/m2 BKN
06:34 58.5 °F 57.9 °F 29.87 in West 4.6 mph 3.6 mph 98% 0.00 in 270.40 W/m2 BKN
06:39 58.5 °F 57.9 °F 29.88 in WNW 2.9 mph 3.1 mph 98% 0.00 in 272.40 W/m2 BKN
06:44 58.5 °F 57.9 °F 29.88 in West 3.5 mph 3.1 mph 98% 0.00 in 273.40 W/m2 BKN
06:49 58.5 °F 57.9 °F 29.88 in West 3.5 mph 2.7 mph 98% 0.00 in 275.40 W/m2 BKN
06:54 58.5 °F 57.9 °F 29.88 in WNW 6.0 mph 2.5 mph 98% 0.00 in 276.40 W/m2 BKN
06:59 58.5 °F 57.9 °F 29.89 in West 8.0 mph 2.9 mph 98% 0.00 in 275.40 W/m2 BKN
07:04 58.5 °F 57.9 °F 29.89 in WNW 3.5 mph 3.1 mph 98% 0.00 in 275.40 W/m2 BKN
07:09 58.8 °F 58.3 °F 29.89 in WNW 3.5 mph 1.3 mph 98% 0.00 in 275.40 W/m2 BKN
07:14 59.4 °F 58.8 °F 29.89 in West 2.0 mph 3.1 mph 98% 0.00 in 277.40 W/m2 BKN
07:19 59.4 °F 58.2 °F 29.89 in WSW 4.9 mph 2.5 mph 96% 0.00 in 277.40 W/m2 BKN
07:24 59.9 °F 58.8 °F 29.89 in NNW 4.6 mph 3.6 mph 96% 0.00 in 278.40 W/m2 BKN
07:29 60.3 °F 58.2 °F 29.89 in South 6.9 mph 3.6 mph 93% 0.00 in 278.40 W/m2 BKN
07:34 61.0 °F 58.3 °F 29.89 in NNW 4.0 mph 2.5 mph 91% 0.00 in 280.50 W/m2 BKN
07:39 61.3 °F 58.7 °F 29.89 in West 2.9 mph 2.2 mph 91% 0.00 in 281.50 W/m2 BKN
07:44 61.9 °F 58.9 °F 29.91 in West 6.0 mph 3.6 mph 90% 0.00 in 281.50 W/m2 BKN
07:49 62.2 °F 58.6 °F 29.91 in NNW 6.9 mph 3.6 mph 88% 0.00 in 284.50 W/m2 BKN
07:54 62.4 °F 58.8 °F 29.91 in NE 3.5 mph 1.1 mph 88% 0.00 in 291.60 W/m2 BKN
07:59 63.0 °F 58.7 °F 29.91 in WNW 2.9 mph 1.1 mph 86% 0.00 in 287.50 W/m2 BKN
08:04 63.0 °F 58.7 °F 29.91 in WNW 3.5 mph 2.7 mph 86% 0.00 in 301.70 W/m2 CLR
08:09 63.3 °F 58.1 °F 29.91 in East 3.5 mph 2.7 mph 83% 0.00 in 301.70 W/m2 CLR
08:14 63.9 °F 58.6 °F 29.91 in WNW 5.8 mph 2.9 mph 83% 0.00 in 391.60 W/m2 CLR
08:19 64.6 °F 58.6 °F 29.91 in North 3.5 mph 3.8 mph 81% 0.00 in 416.80 W/m2 CLR
08:24 64.9 °F 57.9 °F 29.91 in North 4.0 mph 3.1 mph 78% 0.00 in 526.90 W/m2 CLR
08:29 65.5 °F 57.7 °F 29.91 in NNW 4.0 mph 2.2 mph 76% 0.00 in 699.60 W/m2 CLR
08:34 65.8 °F 57.7 °F 29.91 in West 10.4 mph 4.2 mph 75% 0.00 in 768.30 W/m2 CLR
08:39 66.4 °F 57.8 °F 29.91 in SSE 4.0 mph 4.2 mph 74% 0.00 in 800.60 W/m2 CLR
08:44 66.6 °F 58.4 °F 29.91 in NNE 3.5 mph 4.0 mph 75% 0.00 in 814.80 W/m2 CLR
08:49 66.6 °F 58.0 °F 29.93 in North 4.6 mph 2.7 mph 74% 0.00 in 821.80 W/m2 CLR
08:54 67.3 °F 59.1 °F 29.94 in SSE 3.5 mph 1.8 mph 75% 0.00 in 833.90 W/m2 CLR
08:59 68.4 °F 57.4 °F 29.94 in NNW 8.9 mph 5.6 mph 68% 0.00 in 839.00 W/m2 CLR
09:04 67.8 °F 57.7 °F 29.94 in NNE 1.2 mph 3.6 mph 70% 0.00 in 842.00 W/m2 CLR
09:09 68.4 °F 57.8 °F 29.94 in West 5.8 mph 4.2 mph 69% 0.00 in 848.10 W/m2 CLR
09:14 69.8 °F 57.9 °F 29.94 in WNW 6.9 mph 4.0 mph 66% 0.00 in 388.00 W/m2 CLR
09:15 69.8 °F 57.9 °F 29.94 in WNW 6.9 mph 4.0 mph 66% 0.00 in 388.00 W/m2 CLR
09:29 70.0 °F 57.7 °F 29.95 in ENE 3.5 mph 2.2 mph 65% 0.00 in 863.20 W/m2 CLR
09:34 70.5 °F 57.3 °F 29.95 in NNW 3.5 mph 2.7 mph 63% 0.00 in 867.30 W/m2 CLR
09:39 70.5 °F 56.4 °F 29.95 in SSW 5.8 mph 4.5 mph 61% 0.00 in 870.30 W/m2 CLR
09:44 70.5 °F 56.4 °F 29.95 in NW 5.8 mph 3.6 mph 61% 0.00 in 871.30 W/m2 CLR
09:49 70.5 °F 56.4 °F 29.96 in NNE 4.0 mph 6.3 mph 61% 0.00 in 873.30 W/m2 CLR
09:54 70.5 °F 56.0 °F 29.96 in West 6.9 mph 5.6 mph 60% 0.00 in 877.40 W/m2 CLR
09:59 70.0 °F 56.8 °F 29.97 in North 6.9 mph 3.8 mph 63% 0.00 in 875.40 W/m2 CLR
10:04 70.9 °F 56.8 °F 29.96 in SSE 6.0 mph 3.1 mph 61% 0.00 in 875.40 W/m2 CLR
10:09 71.4 °F 56.8 °F 29.97 in West 5.8 mph 2.7 mph 60% 0.00 in 880.40 W/m2 CLR
10:14 71.1 °F 56.0 °F 29.96 in West 3.5 mph 2.9 mph 59% 0.00 in 881.40 W/m2 CLR
10:19 71.4 °F 56.3 °F 29.96 in WNW 2.9 mph 2.0 mph 59% 0.00 in 883.40 W/m2 CLR
10:24 72.3 °F 55.7 °F 29.97 in ESE 4.6 mph 3.1 mph 56% 0.00 in 886.50 W/m2 CLR
10:29 71.4 °F 54.4 °F 29.97 in WSW 5.8 mph 3.4 mph 55% 0.00 in 884.40 W/m2 CLR
10:34 72.3 °F 56.7 °F 29.97 in NNE 2.3 mph 2.2 mph 58% 0.00 in 884.40 W/m2 CLR
10:39 73.8 °F 56.6 °F 29.97 in NNE 1.2 mph 1.3 mph 55% 0.00 in 892.50 W/m2 CLR
10:44 73.8 °F 56.1 °F 29.96 in West 3.5 mph 1.8 mph 54% 0.00 in 894.60 W/m2 CLR
10:49 73.9 °F 55.7 °F 29.95 in NNE 4.6 mph 2.9 mph 53% 0.00 in 894.60 W/m2 CLR
10:54 74.8 °F 56.6 °F 29.96 in NE 3.5 mph 2.9 mph 53% 0.00 in 894.60 W/m2 CLR
10:59 73.9 °F 54.7 °F 29.96 in NW 3.5 mph 2.5 mph 51% 0.00 in 897.60 W/m2 CLR
11:04 74.3 °F 55.0 °F 29.96 in West 6.0 mph 3.1 mph 51% 0.00 in 897.60 W/m2 CLR
11:09 74.7 °F 54.8 °F 29.98 in ESE 6.9 mph 4.9 mph 50% 0.00 in 897.60 W/m2 CLR
11:14 74.3 °F 54.5 °F 29.96 in SSE 4.6 mph 4.2 mph 50% 0.00 in 899.60 W/m2 CLR
11:19 74.8 °F 54.9 °F 29.96 in NNW 8.0 mph 4.2 mph 50% 0.00 in 902.60 W/m2 CLR
11:24 74.8 °F 55.5 °F 29.96 in NNW 4.0 mph 4.2 mph 51% 0.00 in 826.90 W/m2 CLR
11:29 74.8 °F 54.4 °F 29.96 in West 11.5 mph 5.8 mph 49% 0.00 in 826.90 W/m2 CLR
11:34 75.0 °F 54.6 °F 29.96 in West 3.5 mph 3.4 mph 49% 0.00 in 905.70 W/m2 CLR
11:39 75.4 °F 54.9 °F 29.96 in NW 8.0 mph 4.5 mph 49% 0.00 in 901.60 W/m2 CLR
11:44 75.0 °F 52.2 °F 29.96 in NNW 8.1 mph 5.6 mph 45% 0.00 in 1025.00 W/m2 CLR
11:49 75.4 °F 52.6 °F 29.96 in SSE 8.0 mph 4.5 mph 45% 0.00 in 883.40 W/m2 CLR
11:54 76.8 °F 50.7 °F 29.98 in WNW 11.5 mph 5.1 mph 40% 0.00 in 904.70 W/m2 CLR
11:59 76.3 °F 52.1 °F 29.98 in WNW 3.5 mph 4.2 mph 43% 0.00 in 904.70 W/m2 CLR
12:04 77.4 °F 51.1 °F 29.98 in East 4.9 mph 4.2 mph 40% 0.00 in 903.60 W/m2 CLR
12:09 77.4 °F 51.1 °F 29.98 in West 6.0 mph 4.7 mph 40% 0.00 in 903.60 W/m2 CLR
12:14 77.4 °F 47.6 °F 29.98 in WNW 3.5 mph 3.4 mph 35% 0.00 in 901.60 W/m2 CLR
12:19 76.8 °F 46.3 °F 29.98 in West 10.4 mph 5.4 mph 34% 0.00 in 899.60 W/m2 CLR
12:24 76.8 °F 46.3 °F 29.98 in West 6.9 mph 4.0 mph 34% 0.00 in 899.60 W/m2 CLR
12:29 77.4 °F 47.6 °F 29.98 in SW 10.4 mph 4.5 mph 35% 0.00 in 899.60 W/m2 CLR
12:34 76.8 °F 47.1 °F 29.97 in West 4.9 mph 4.7 mph 35% 0.00 in 900.60 W/m2 CLR
12:39 77.5 °F 46.9 °F 29.97 in WNW 4.6 mph 3.4 mph 34% 0.00 in 900.60 W/m2 CLR
12:44 77.5 °F 46.9 °F 29.97 in ESE 4.9 mph 3.6 mph 34% 0.00 in 901.60 W/m2 CLR
12:49 77.5 °F 47.7 °F 29.97 in WNW 2.9 mph 3.1 mph 35% 0.00 in 900.60 W/m2 CLR
12:54 77.7 °F 47.1 °F 29.98 in WNW 3.5 mph 2.7 mph 34% 0.00 in 900.60 W/m2 CLR
12:59 78.4 °F 46.1 °F 29.98 in North 5.8 mph 3.4 mph 32% 0.00 in 899.60 W/m2 CLR
13:04 78.4 °F 47.7 °F 29.98 in WSW 4.9 mph 2.7 mph 34% 0.00 in 900.60 W/m2 CLR
13:09 78.8 °F 48.8 °F 29.98 in SSW 3.5 mph 3.6 mph 35% 0.00 in 900.60 W/m2 CLR
13:14 78.8 °F 48.8 °F 29.97 in West 4.9 mph 3.6 mph 35% 0.00 in 899.60 W/m2 CLR
13:19 78.8 °F 48.8 °F 29.98 in WNW 4.6 mph 3.1 mph 35% 0.00 in 899.60 W/m2 CLR
13:24 79.3 °F 46.9 °F 29.98 in NNE 4.6 mph 3.4 mph 32% 0.00 in 900.60 W/m2 CLR
13:29 79.9 °F 49.8 °F 29.97 in West 5.8 mph 3.1 mph 35% 0.00 in 899.60 W/m2 CLR
13:34 79.3 °F 49.3 °F 29.97 in West 6.9 mph 4.2 mph 35% 0.00 in 0.00 W/m2 CLR
13:39 79.9 °F 49.8 °F 29.97 in NNW 1.2 mph 3.4 mph 35% 0.00 in 900.60 W/m2 CLR
13:44 79.5 °F 49.5 °F 29.97 in NNE 5.8 mph 2.7 mph 35% 0.00 in 900.60 W/m2 CLR
13:49 80.8 °F 49.8 °F 29.97 in West 4.0 mph 2.2 mph 34% 0.00 in 901.60 W/m2 CLR
13:54 79.3 °F 46.9 °F 29.96 in ESE 5.8 mph 3.6 mph 32% 0.00 in 899.60 W/m2 CLR
13:59 79.3 °F 46.9 °F 29.97 in WSW 4.6 mph 5.4 mph 32% 0.00 in 899.60 W/m2 CLR
14:04 79.3 °F 46.9 °F 29.97 in WNW 4.9 mph 5.6 mph 32% 0.00 in 900.60 W/m2 CLR
14:09 79.3 °F 46.9 °F 29.97 in WNW 4.9 mph 5.6 mph 32% 0.00 in 899.60 W/m2 CLR
14:14 80.1 °F 47.5 °F 29.97 in SSW 8.0 mph 5.4 mph 32% 0.00 in 0.00 W/m2 CLR
14:19 80.1 °F 49.9 °F 29.97 in West 4.6 mph 3.8 mph 35% 0.00 in 899.60 W/m2 CLR
14:24 80.4 °F 47.9 °F 29.97 in WNW 4.6 mph 3.4 mph 32% 0.00 in 900.60 W/m2 CLR
14:29 80.1 °F 47.5 °F 29.96 in NNW 2.9 mph 2.5 mph 32% 0.00 in 898.60 W/m2 CLR
14:34 81.0 °F 49.9 °F 29.95 in SW 4.0 mph 2.7 mph 34% 0.00 in 898.60 W/m2 CLR
14:39 80.8 °F 48.2 °F 29.95 in West 4.9 mph 4.2 mph 32% 0.00 in 898.60 W/m2 CLR
14:44 80.1 °F 47.5 °F 29.95 in WNW 11.5 mph 5.6 mph 32% 0.00 in 898.60 W/m2 CLR
14:49 80.1 °F 47.5 °F 29.95 in WNW 3.5 mph 3.1 mph 32% 0.00 in 897.60 W/m2 CLR
14:54 80.2 °F 49.3 °F 29.97 in North 2.3 mph 3.4 mph 34% 0.00 in 899.60 W/m2 CLR
14:59 80.1 °F 49.2 °F 29.97 in WSW 4.9 mph 3.6 mph 34% 0.00 in 0.00 W/m2 CLR
15:04 80.4 °F 47.0 °F 29.97 in NNW 3.5 mph 3.6 mph 31% 0.00 in 898.60 W/m2 CLR
15:09 80.1 °F 49.2 °F 29.97 in SSW 2.3 mph 2.2 mph 34% 0.00 in 897.60 W/m2 CLR
15:14 81.0 °F 48.3 °F 29.97 in NW 6.9 mph 4.5 mph 32% 0.00 in 0.00 W/m2 CLR
15:19 80.8 °F 49.8 °F 29.95 in ESE 2.0 mph 2.7 mph 34% 0.00 in 895.60 W/m2 CLR
15:24 80.1 °F 49.2 °F 29.97 in SSW 6.9 mph 4.7 mph 34% 0.00 in 895.60 W/m2 CLR
15:29 80.4 °F 49.5 °F 29.97 in SW 3.5 mph 4.0 mph 34% 0.00 in 896.60 W/m2 CLR
15:34 81.3 °F 48.6 °F 29.95 in West 2.0 mph 2.0 mph 32% 0.00 in 896.60 W/m2 CLR
15:39 81.3 °F 48.6 °F 29.95 in WSW 2.3 mph 2.2 mph 32% 0.00 in 894.60 W/m2 CLR
15:44 81.3 °F 46.9 °F 29.95 in NNW 4.9 mph 2.9 mph 30% 0.00 in 894.60 W/m2 CLR
15:49 81.9 °F 48.3 °F 29.95 in WNW 8.0 mph 3.6 mph 31% 0.00 in 0.00 W/m2 CLR
15:54 81.9 °F 48.3 °F 29.96 in West 3.5 mph 4.9 mph 31% 0.00 in 893.50 W/m2 CLR
15:59 81.0 °F 49.9 °F 29.96 in WNW 3.5 mph 2.7 mph 34% 0.00 in 894.60 W/m2 CLR
16:04 81.0 °F 48.3 °F 29.95 in WNW 4.6 mph 3.1 mph 32% 0.00 in 893.50 W/m2 FEW
16:09 81.3 °F 46.9 °F 29.95 in West 6.0 mph 5.4 mph 30% 0.00 in 892.50 W/m2 FEW
16:14 82.0 °F 47.5 °F 29.95 in NNW 6.9 mph 4.2 mph 30% 0.00 in 892.50 W/m2 FEW
16:19 81.3 °F 50.3 °F 29.94 in ENE 3.5 mph 0.9 mph 34% 0.00 in 890.50 W/m2 FEW
16:24 81.7 °F 48.9 °F 29.94 in WNW 2.3 mph 1.3 mph 32% 0.00 in 888.50 W/m2 FEW
16:29 82.2 °F 51.1 °F 29.94 in WNW 4.0 mph 1.8 mph 34% 0.00 in 887.50 W/m2 FEW
16:34 81.9 °F 47.4 °F 29.95 in WNW 9.2 mph 6.3 mph 30% 0.00 in 887.50 W/m2 FEW
16:39 81.3 °F 50.3 °F 29.95 in ESE 3.5 mph 2.2 mph 34% 0.00 in 884.40 W/m2 FEW
16:44 82.0 °F 48.4 °F 29.96 in SW 4.0 mph 2.2 mph 31% 0.00 in 883.40 W/m2 FEW
16:49 82.2 °F 47.7 °F 29.96 in WNW 11.5 mph 5.1 mph 30% 0.00 in 882.40 W/m2 FEW
16:54 82.2 °F 47.7 °F 29.96 in West 9.2 mph 6.5 mph 30% 0.00 in 877.40 W/m2 FEW
16:59 81.7 °F 47.2 °F 29.96 in SW 5.8 mph 3.6 mph 30% 0.00 in 874.30 W/m2 FEW
17:04 81.7 °F 47.2 °F 29.96 in West 4.0 mph 3.6 mph 30% 0.00 in 872.30 W/m2 CLR
17:09 81.7 °F 47.2 °F 29.96 in NNE 6.9 mph 4.9 mph 30% 0.00 in 838.00 W/m2 CLR
17:14 81.7 °F 47.2 °F 29.97 in West 6.9 mph 4.9 mph 30% 0.00 in 867.30 W/m2 CLR
17:19 82.2 °F 47.7 °F 29.96 in West 3.5 mph 1.8 mph 30% 0.00 in 861.20 W/m2 CLR
17:24 81.9 °F 47.4 °F 29.96 in WSW 4.9 mph 2.9 mph 30% 0.00 in 860.20 W/m2 CLR
17:29 82.2 °F 47.7 °F 29.96 in West 3.5 mph 3.6 mph 30% 0.00 in 856.20 W/m2 CLR
17:34 81.9 °F 47.4 °F 29.96 in SW 6.9 mph 3.6 mph 30% 0.00 in 852.10 W/m2 CLR
17:39 81.9 °F 47.4 °F 29.96 in West 4.6 mph 2.9 mph 30% 0.00 in 0.00 W/m2 CLR
17:44 81.7 °F 47.2 °F 29.96 in WSW 8.0 mph 4.7 mph 30% 0.00 in 842.00 W/m2 CLR
17:49 81.0 °F 46.6 °F 29.96 in West 3.5 mph 4.5 mph 30% 0.00 in 0.00 W/m2 CLR
17:54 81.9 °F 47.4 °F 29.96 in NNW 4.0 mph 1.8 mph 30% 0.00 in 831.90 W/m2 CLR
17:59 80.8 °F 46.4 °F 29.96 in West 3.5 mph 3.6 mph 30% 0.00 in 824.90 W/m2 CLR
18:04 80.8 °F 46.4 °F 29.96 in NNE 4.0 mph 3.6 mph 30% 0.00 in 813.80 W/m2 CLR
18:09 80.8 °F 46.4 °F 29.96 in NNE 3.5 mph 0.9 mph 30% 0.00 in 805.70 W/m2 CLR
18:14 80.2 °F 46.9 °F 29.96 in East 2.3 mph 3.6 mph 31% 0.00 in 805.70 W/m2 CLR
18:19 80.1 °F 45.8 °F 29.96 in West 5.8 mph 3.1 mph 30% 0.00 in 770.30 W/m2 CLR
18:24 80.8 °F 46.4 °F 29.96 in WSW 10.4 mph 5.1 mph 30% 0.00 in 727.90 W/m2 CLR
18:29 80.1 °F 45.8 °F 29.96 in SW 3.5 mph 1.1 mph 30% 0.00 in 617.80 W/m2 CLR
18:34 80.4 °F 46.1 °F 29.96 in West 6.0 mph 2.5 mph 30% 0.00 in 493.60 W/m2 CLR
18:39 79.5 °F 46.2 °F 29.96 in NNW 4.9 mph 2.2 mph 31% 0.00 in 454.20 W/m2 CLR
18:44 79.3 °F 46.9 °F 29.96 in West 2.3 mph 2.5 mph 32% 0.00 in 432.00 W/m2 CLR
18:49 79.3 °F 46.1 °F 29.96 in WNW 3.5 mph 1.6 mph 31% 0.00 in 417.80 W/m2 CLR
18:54 79.0 °F 46.6 °F 29.96 in West 2.3 mph 2.0 mph 32% 0.00 in 417.80 W/m2 CLR
18:59 79.2 °F 46.8 °F 29.96 in NW 4.0 mph 2.5 mph 32% 0.00 in 383.50 W/m2 CLR
19:04 79.0 °F 46.6 °F 29.96 in West 4.0 mph 3.4 mph 32% 0.00 in 326.90 W/m2 CLR
19:09 77.7 °F 47.9 °F 29.96 in West 3.5 mph 3.6 mph 35% 0.00 in 319.90 W/m2 CLR
19:14 79.0 °F 48.2 °F 29.95 in WNW 3.5 mph 3.4 mph 34% 0.00 in 319.90 W/m2 CLR
19:19 78.3 °F 48.4 °F 29.95 in NW 2.3 mph 1.3 mph 35% 0.00 in 313.80 W/m2 CLR
19:24 78.1 °F 48.2 °F 29.95 in West 1.2 mph 1.3 mph 35% 0.00 in 311.80 W/m2 CLR
19:29 77.5 °F 49.2 °F 29.95 in Calm   0.2 mph 37% 0.00 in 306.70 W/m2 CLR
19:34 76.8 °F 48.6 °F 29.95 in SW 2.3 mph 0.7 mph 37% 0.00 in 303.70 W/m2 CLR
19:39 76.8 °F 50.7 °F 29.95 in Calm   0.4 mph 40% 0.00 in 299.70 W/m2 CLR
19:44 76.5 °F 50.3 °F 29.95 in NW 2.3 mph 0.4 mph 40% 0.00 in 296.60 W/m2 CLR
19:49 75.6 °F 50.2 °F 29.96 in WNW 1.2 mph 0.2 mph 41% 0.00 in 292.60 W/m2 CLR
19:54 74.8 °F 51.5 °F 29.95 in Calm     44% 0.00 in 288.60 W/m2 CLR
19:59 73.8 °F 51.1 °F 29.95 in Calm     45% 0.00 in 283.50 W/m2 CLR
20:04 73.8 °F 51.1 °F 29.96 in Calm     45% 0.00 in 279.50 W/m2 CLR
20:09 72.0 °F 51.8 °F 29.95 in Calm     49% 0.00 in 273.40 W/m2 CLR
20:14 71.1 °F 53.1 °F 29.95 in Calm     53% 0.00 in 273.40 W/m2 CLR
20:19 70.3 °F 53.9 °F 29.96 in Calm     56% 0.00 in 260.30 W/m2 CLR
20:24 69.4 °F 53.1 °F 29.96 in Calm     56% 0.00 in 256.20 W/m2 CLR
20:29 68.2 °F 53.3 °F 29.95 in Calm     59% 0.00 in 252.20 W/m2 CLR
20:34 67.5 °F 52.2 °F 29.96 in Calm     58% 0.00 in 237.00 W/m2 CLR
20:39 66.6 °F 51.8 °F 29.96 in Calm     59% 0.00 in 223.90 W/m2 CLR
20:44 65.8 °F 51.6 °F 29.96 in Calm     60% 0.00 in 216.80 W/m2 CLR
20:49 65.1 °F 53.1 °F 29.96 in Calm     65% 0.00 in 198.70 W/m2 CLR
20:54 64.8 °F 53.1 °F 29.96 in Calm     66% 0.00 in 172.40 W/m2 CLR
20:59 63.9 °F 53.1 °F 29.96 in Calm     68% 0.00 in 156.20 W/m2 CLR
21:04 63.3 °F 51.8 °F 29.97 in Calm     66% 0.00 in 87.60 W/m2 CLR
21:09 62.8 °F 52.1 °F 29.96 in Calm     68% 0.00 in 0.00 W/m2 CLR
21:14 62.1 °F 51.4 °F 29.97 in Calm     68% 0.00 in 0.00 W/m2 CLR
21:19 61.3 °F 51.9 °F 29.97 in Calm     71% 0.00 in 0.00 W/m2 CLR
21:24 60.6 °F 51.2 °F 29.97 in Calm     71% 0.00 in 0.00 W/m2 CLR
21:29 60.1 °F 51.8 °F 29.97 in Calm     74% 0.00 in 0.00 W/m2 CLR
21:34 59.4 °F 50.7 °F 29.97 in Calm     73% 0.00 in 0.00 W/m2 CLR
21:39 59.0 °F 50.4 °F 29.97 in Calm     73% 0.00 in 0.00 W/m2 CLR
21:44 58.8 °F 50.5 °F 29.97 in Calm     74% 0.00 in 0.00 W/m2 CLR
21:49 58.5 °F 50.2 °F 29.98 in Calm     74% 0.00 in 0.00 W/m2 CLR
21:54 58.3 °F 50.4 °F 29.98 in Calm     75% 0.00 in 0.00 W/m2 CLR
21:59 57.9 °F 51.4 °F 29.99 in Calm     79% 0.00 in 0.00 W/m2 CLR
22:04 57.7 °F 51.3 °F 29.99 in Calm     79% 0.00 in 0.00 W/m2 CLR
22:09 57.7 °F 50.9 °F 29.99 in Calm     78% 0.00 in 0.00 W/m2 CLR
22:14 57.4 °F 50.9 °F 29.99 in Calm     79% 0.00 in 0.00 W/m2 CLR
22:19 57.2 °F 50.7 °F 29.99 in Calm     79% 0.00 in 0.00 W/m2 CLR
22:24 57.2 °F 51.1 °F 30.00 in Calm     80% 0.00 in 0.00 W/m2 CLR
22:29 56.8 °F 51.1 °F 30.00 in Calm     81% 0.00 in 0.00 W/m2 CLR
22:34 56.5 °F 50.7 °F 30.00 in Calm     81% 0.00 in 0.00 W/m2 CLR
22:39 56.3 °F 50.5 °F 30.00 in Calm     81% 0.00 in 0.00 W/m2 CLR
22:44 55.9 °F 50.9 °F 30.00 in Calm     83% 0.00 in 0.00 W/m2 CLR
22:49 55.8 °F 50.7 °F 29.99 in Calm     83% 0.00 in 0.00 W/m2 CLR
22:54 55.2 °F 50.8 °F 29.99 in Calm     85% 0.00 in 0.00 W/m2 CLR
22:59 55.0 °F 50.9 °F 29.99 in Calm     86% 0.00 in 0.00 W/m2 CLR
23:04 55.0 °F 50.9 °F 29.99 in Calm     86% 0.00 in 0.00 W/m2 CLR
23:09 54.9 °F 51.4 °F 30.00 in Calm     88% 0.00 in 0.00 W/m2 CLR
23:14 54.7 °F 51.2 °F 30.00 in Calm     88% 0.00 in 0.00 W/m2 CLR
23:19 54.7 °F 50.6 °F 30.00 in Calm     86% 0.00 in 0.00 W/m2 CLR
23:24 54.0 °F 50.5 °F 30.00 in Calm     88% 0.00 in 0.00 W/m2 CLR
23:29 54.0 °F 50.5 °F 29.99 in Calm     88% 0.00 in 0.00 W/m2 CLR
23:34 53.8 °F 50.9 °F 30.00 in Calm     90% 0.00 in 0.00 W/m2 CLR
23:39 53.8 °F 50.9 °F 30.00 in Calm     90% 0.00 in 0.00 W/m2 CLR
23:44 53.4 °F 50.9 °F 30.00 in Calm     91% 0.00 in 0.00 W/m2 CLR
23:49 53.4 °F 50.9 °F 30.00 in Calm     91% 0.00 in 0.00 W/m2 CLR
23:54 53.1 °F 51.1 °F 30.00 in Calm     93% 0.00 in 0.00 W/m2 CLR
23:59 53.1 °F 51.1 °F 30.00 in Calm     93% 0.00 in 0.00 W/m2 CLR
Juneau County Weather
Compliments of Weather Underground - 5.75 mb